• Join FlightAware (Why Join?)
  • Login
  • US Flag 
09:18PM EDT


 

Airport Tracker/Info


-or-


 

Live Flight TrackerFlight Track Log ✈ ASQ4252 ✈ 15-Jul-2013 ✈ KORD - KXNA

Flight Track Log - Related Links

Times and Time Zones

All times are in EDT time to prevent confusion due to time zone crossing. See the ASQ4252 flight status page for this flight to view local times or setup timezone preferences in your user account.

Time Position Orientation Groundspeed Altitude Reporting Facility
EDT Latitude Longitude Course Direction KTS MPH feet Rate Location/Type
09:12AM 41.9167 -87.9167 203° Southwest 189 217 3,300  Level Chicago TRACON
09:13AM 41.8500 -87.9500 200° South 252 290 4,900 960 Climbing Chicago TRACON
09:14AM 41.7972 -87.9703 196° South 250 288 5,100 1,620 Climbing Chicago Center
09:15AM 41.6878 -88.2745 197° South  Level Estimated
09:15AM 41.7272 -88.0003 198° South 265 305 7,900  Level Chicago Center
09:16AM 41.5934 -88.2282 160° South  Level FlightAware Approximate
09:16AM 41.6581 -88.0406 204° Southwest 274 315 10,400  Level Chicago Center
09:17AM 41.5207 -88.3208 194° South  Level Estimated
09:17AM 41.5853 -88.0808 202° Southwest 284 327 12,600  Level Chicago Center
09:18AM 41.4456 -88.4160 203° Southwest  Level Estimated
09:18AM 41.4908 -88.1339 203° Southwest 314 361 13,900  Level Chicago Center
09:19AM 41.4044 -88.1808 202° Southwest 346 398 15,000 1,140 Climbing Chicago Center
09:20AM 41.3119 -88.2222 199° South 358 412 16,300 1,200 Climbing Chicago Center
09:21AM 41.2175 -88.2647 199° South 361 415 17,600 1,200 Climbing Chicago Center
09:22AM 41.1036 -88.3167 199° South 363 418 18,900 1,140 Climbing Chicago Center
09:23AM 41.0092 -88.3594 199° South 362 417 20,000 960 Climbing Chicago Center
09:24AM 40.9125 -88.4019 198° South 366 421 21,000 960 Climbing Chicago Center
09:25AM 40.8133 -88.4464 199° South 376 433 22,100 960 Climbing Chicago Center
09:26AM 40.7142 -88.4917 199° South 379 436 23,100 1,020 Climbing Chicago Center
09:28AM 40.5942 -88.5439 198° South 379 436 24,300 1,020 Climbing Chicago Center
09:29AM 40.4936 -88.5897 199° South 385 443 25,300 900 Climbing Chicago Center
09:30AM 40.3233 -88.6664 199° South 387 445 27,000 1,020 Climbing Kansas City Center
09:31AM 40.2250 -88.7839 222° Southwest 396 456 28,300 1,140 Climbing Kansas City Center
09:32AM 40.1442 -88.8872 224° Southwest 401 461 29,400 1,020 Climbing Kansas City Center
09:33AM 40.0631 -88.9886 224° Southwest 402 463 30,500 1,140 Climbing Kansas City Center
09:35AM 39.9831 -89.0900 224° Southwest 401 461 31,800 1,260 Climbing Kansas City Center
09:36AM 39.9044 -89.1906 224° Southwest 397 457 33,200 1,320 Climbing Kansas City Center
09:37AM 39.8269 -89.2883 224° Southwest 390 449 34,500 1,080 Climbing Kansas City Center
09:38AM 39.7494 -89.3850 224° Southwest 387 445 35,500 720 Climbing Kansas City Center
09:39AM 39.6675 -89.4861 224° Southwest 387 445 36,000 240 Climbing Kansas City Center
09:40AM 39.5853 -89.5911 225° Southwest 407 468 36,000  Level Kansas City Center
09:41AM 39.4989 -89.6972 223° Southwest 424 488 36,000  Level Kansas City Center
09:42AM 39.3939 -89.8375 226° Southwest 447 514 36,000  Level Kansas City Center
09:43AM 39.3092 -89.9650 229° Southwest 463 533 36,000  Level Kansas City Center
09:44AM 39.2233 -90.0914 229° Southwest 469 540 36,000  Level Kansas City Center
09:45AM 39.1383 -90.2161 229° Southwest 467 537 36,000  Level Kansas City Center
09:46AM 39.0539 -90.3394 229° Southwest 465 535 36,000  Level Kansas City Center
09:47AM 38.9550 -90.4853 229° Southwest 460 529 36,000  Level Kansas City Center
09:48AM 38.8786 -90.5942 228° Southwest 457 526 36,000  Level Kansas City Center
09:49AM 38.7856 -90.7250 228° Southwest 457 526 36,000  Level Kansas City Center
09:50AM 38.7031 -90.8417 228° Southwest 447 514 36,000  Level Kansas City Center
09:51AM 38.6203 -90.9581 228° Southwest 447 514 36,000  Level Kansas City Center
09:52AM 38.5200 -91.1014 228° Southwest 451 519 36,000  Level Kansas City Center
09:53AM 38.4358 -91.2189 228° Southwest 450 518 36,000  Level Kansas City Center
09:54AM 38.3522 -91.3342 227° Southwest 445 512 36,000  Level Kansas City Center
09:55AM 38.2689 -91.4492 227° Southwest 448 516 36,000  Level Kansas City Center
09:56AM 38.1858 -91.5658 228° Southwest 445 512 36,000  Level Kansas City Center
09:57AM 38.0850 -91.7058 228° Southwest 445 512 36,000  Level Kansas City Center
09:58AM 37.9994 -91.8236 227° Southwest 447 514 36,000  Level Kansas City Center
09:59AM 37.9144 -91.9403 227° Southwest 447 514 36,000  Level Kansas City Center
10:00AM 37.8278 -92.0578 227° Southwest 451 519 36,000  Level Kansas City Center
10:01AM 37.7489 -92.1658 227° Southwest 441 507 36,000 -420 Level Kansas City Center
10:02AM 37.6678 -92.2786 228° Southwest 436 502 35,200 -1,440 Descending Kansas City Center
10:03AM 37.5756 -92.4028 227° Southwest 445 512 33,100 -1,920 Descending Kansas City Center
10:04AM 37.4914 -92.5197 228° Southwest 447 514 31,300 -1,740 Descending Kansas City Center
10:05AM 37.4058 -92.6367 227° Southwest 450 518 29,500 -2,340 Descending Kansas City Center
10:06AM 37.3000 -92.7714 225° Southwest 449 517 26,600 -2,880 Descending Kansas City Center
10:08AM 37.2111 -92.8869 226° Southwest 457 526 23,600 -2,640 Descending Kansas City Center
10:09AM 37.1269 -93.0025 228° Southwest 451 519 21,100 -2,280 Descending Kansas City Center
10:10AM 37.0450 -93.1097 226° Southwest 433 498 18,900 -2,040 Descending Kansas City Center
10:11AM 36.9692 -93.2117 227° Southwest 408 470 16,900 -1,920 Descending Kansas City Center
10:12AM 36.8931 -93.3106 226° Southwest 397 457 15,000 -1,800 Descending Kansas City Center
10:13AM 36.8061 -93.4189 225° Southwest 393 452 13,300 -1,500 Descending Kansas City Center
10:14AM 36.7353 -93.5114 226° Southwest 378 435 11,900 -1,320 Descending Kansas City Center
10:15AM 36.6636 -93.6008 225° Southwest 368 423 10,600 -900 Descending Kansas City Center
10:16AM 36.6047 -93.6917 231° Southwest 347 399 10,100 -1,020 Descending Kansas City Center
10:17AM 36.5672 -93.7933 245° Southwest 301 346 8,600 -1,620 Descending Kansas City Center
10:18AM 36.5378 -93.8842 248° West 288 331 6,800 -1,740 Descending Kansas City Center
10:19AM 36.5069 -93.9728 247° West 283 326 5,100 -1,440 Descending Kansas City Center
10:20AM 36.4772 -94.0564 246° West 274 315 3,900 -1,080 Descending Kansas City Center
10:21AM 36.4431 -94.1539 246° West 264 304 3,000 -900 Descending Kansas City Center